SMJPSBSN

Guest
Details From SMJP - Paramaribo Johan A Pengel Intl
To SBSN - SANTAREM
Flight Number -
Tags decoded
Created
Modified
Stats Distance 509 nm / 943 km
Max Altitude 0 ft / 0 m
Waypoints 6
Social Downloads 0
Likes 0
Share VATSIM

Download

Looking for another format? Having issues loading an existing format? Contact us
Advertisement - Login to hide

Notes

Requested: SMJP TIR UL776 AKNIB UL306 LONAS UZ52 ILBEM SBSN Unmatched points: UZ52

Route

SMJP TIR UL776 AKNIB UL306 LONAS ILBEM SBSN

ID Type Via Altitude Latitude Longitude Leg Dist Tot Dist Heading (true) Name
O SMJP APT - 0 ft / 0 m 5.45283˚ -55.18778˚ - 0 nm - Paramaribo Johan A Pengel Intl
TIR NDB - 0 ft / 0 m 2.21900˚ -55.94183˚ 199 nm 199 nm 193° / 193° TIRIOS NDB
AKNIB FIX UL776 (AWY-HI) 0 ft / 0 m 1.51142˚ -55.63950˚ 46 nm 245 nm 157° / 157° -
LONAS FIX UL306 (AWY-HI) 0 ft / 0 m 1.00917˚ -56.13483˚ 42 nm 287 nm 225° / 225° -
ILBEM FIX - 0 ft / 0 m -1.80150˚ -55.05750˚ 180 nm 468 nm 159° / 159° -
O SBSN APT - 0 ft / 0 m -2.42243˚ -54.79279˚ 40 nm 509 nm 157° / 157° SANTAREM

Altitude Profile

Advertisement - Login to hide

Weather


0- 5 10 15 20 25 30 35+ Temperature / ° C

Clouds and Precipitation
Forecast for 2017-12-13 06:00 UTC. Updated 30 minutes ago

Ground ~20,000 ft ~40,000 ft Winds

SMJP

Details ICAO SMJP (PBM)
Name Paramaribo Johan A Pengel Intl
Region Suriname
Timezone America/Paramaribo (UTC-3.0)
Stats Elevation 59 ft / 18 m (AMSL)
Location 5.452831° -55.187783°
Runways 1
Magnetic Variation 17.547° W

METAR

SMJP 130100Z VRB02KT 9999 FEW010 SCT020 24/24 Q1011 NOSIG

Decode

TAF

Not found

Departure Runways

ID Width Length Bearing (true) Bearing (mag) Surface Threshold Offset Overrun Length
11 148 ft / 45 m 11,415 ft / 3,479 m 89.66° 107.21° Concrete 0 ft / 0 m 164 ft / 50 m
29 148 ft / 45 m 11,415 ft / 3,479 m 269.67° 287.22° Concrete 0 ft / 0 m 197 ft / 60 m

SBSN

Details ICAO SBSN (STM)
Name SANTAREM
Region Brazil
Timezone America/Santarem (UTC-3.0)
Stats Elevation 198 ft / 60 m (AMSL)
Location -2.422430° -54.792788°
Runways 1
Magnetic Variation 18.344° W

METAR

SBSN 130100Z 25003KT 9999 FEW017 BKN100 27/26 Q1010

Decode

TAF

TAF SBSN 122200Z 1300/1324 13003KT CAVOK TN25/1308Z TX32/1318Z BECMG 1305/1307 10005KT 5000 FU BECMG 1313/1315 07010KT 8000 SCT023 BECMG 1317/1319 09005KT BECMG 1320/1322 12005KT CAVOK RMK PEH

Decode

Destination Runways

ID Width Length Bearing (true) Bearing (mag) Surface Threshold Offset Overrun Length
10 148 ft / 45 m 7,873 ft / 2,400 m 80.69° 99.03° Asphalt 0 ft / 0 m 245 ft / 75 m
28 148 ft / 45 m 7,873 ft / 2,400 m 260.69° 279.03° Asphalt 0 ft / 0 m 202 ft / 62 m

Approach Navaids

Runway Type Ident Frequency Range Bearing (true) Bearing (mag) Slope Elevation
10 Localiser ISN 109.30 MHz 18 nm / 33 km 81.06° 99.40° - 198 ft / 60 m (AMSL)

Popular Alternatives